Time;durP1;ratioP1;P1;durP2;ratioP2;P2;SDS_P1;SDS_P2;PMS_P1;PMS_P2;Temp;Humidity;BMP_temperature;BMP_pressure;BME280_temperature;BME280_humidity;BME280_pressure;Samples;Min_cycle;Max_cycle;Signal;HPM_P1;HPM_P2
2021/07/03 00:02:06;;;;;;;21.33;15.32;;;;;;;19.08;60.04;99951.31;5054197;28;20049;-91
2021/07/03 00:04:32;;;;;;;23.98;16.25;;;;;;;19.07;59.82;99945.16;5054601;28;20053;-89
2021/07/03 00:06:59;;;;;;;26.02;17.23;;;;;;;19.06;59.89;99940.78;5054508;28;20052;-89
2021/07/03 00:09:25;;;;;;;20.48;15.57;;;;;;;19.07;59.72;99944.31;5055927;28;20513;-89
2021/07/03 00:11:52;;;;;;;22.15;15.55;;;;;;;19.04;59.83;99933.88;5054595;28;20126;-90
2021/07/03 00:14:19;;;;;;;21.00;15.77;;;;;;;19.02;59.92;99934.88;5056069;28;20111;-89
2021/07/03 00:16:45;;;;;;;24.33;18.05;;;;;;;19.02;60.11;99934.00;5054705;28;20049;-91
2021/07/03 00:19:12;;;;;;;22.83;17.65;;;;;;;19.00;60.08;99936.81;5055689;28;20052;-92
2021/07/03 00:21:39;;;;;;;18.15;14.25;;;;;;;19.00;60.33;99934.13;5058622;28;20521;-90
2021/07/03 00:24:06;;;;;;;26.23;16.40;;;;;;;18.99;60.40;99929.78;5075551;28;20065;-89
2021/07/03 00:26:32;;;;;;;17.52;13.95;;;;;;;18.99;60.08;99935.13;5075434;28;20049;-87
2021/07/03 00:28:59;;;;;;;24.27;15.88;;;;;;;18.98;60.13;99936.13;5073958;28;20056;-90
2021/07/03 00:31:25;;;;;;;22.08;16.50;;;;;;;18.97;60.30;99936.25;5060652;28;20072;-88
2021/07/03 00:33:52;;;;;;;24.45;18.20;;;;;;;18.98;60.55;99937.94;5056909;28;20056;-90
2021/07/03 00:36:19;;;;;;;22.48;16.58;;;;;;;18.95;60.60;99939.06;5054567;28;20053;-90
2021/07/03 00:38:45;;;;;;;24.83;17.20;;;;;;;18.95;60.77;99932.91;5054023;28;20049;-91
2021/07/03 00:41:12;;;;;;;25.48;17.88;;;;;;;18.95;60.71;99932.91;5054655;28;20060;-88
2021/07/03 00:43:39;;;;;;;20.45;14.60;;;;;;;18.95;60.60;99930.22;5054875;28;20044;-89
2021/07/03 00:46:05;;;;;;;21.95;16.70;;;;;;;18.95;60.70;99938.22;5053913;28;20048;-89
2021/07/03 00:48:32;;;;;;;25.05;18.35;;;;;;;18.94;60.51;99934.72;5052926;28;20434;-92
2021/07/03 00:50:59;;;;;;;24.42;16.92;;;;;;;18.94;60.50;99940.03;5055039;28;20102;-90
2021/07/03 00:53:26;;;;;;;23.98;17.17;;;;;;;18.93;60.54;99940.19;5053701;28;20122;-87
2021/07/03 00:55:53;;;;;;;28.98;19.27;;;;;;;18.91;60.91;99934.97;5053403;28;20057;-88
2021/07/03 00:58:20;;;;;;;28.30;20.67;;;;;;;18.90;60.95;99933.28;5055132;28;20053;-89
2021/07/03 01:00:47;;;;;;;30.20;20.30;;;;;;;18.88;61.00;99936.09;5053667;28;20426;-90
2021/07/03 01:03:14;;;;;;;28.33;18.98;;;;;;;18.85;60.93;99939.06;5053980;28;20045;-89
2021/07/03 01:05:40;;;;;;;32.40;20.73;;;;;;;18.84;61.50;99947.19;5053872;28;20056;-93
2021/07/03 01:08:07;;;;;;;31.92;20.42;;;;;;;18.83;61.20;99948.16;5053576;28;20053;-90
2021/07/03 01:10:34;;;;;;;37.05;21.90;;;;;;;18.80;61.12;99954.59;5053780;28;20060;-91
2021/07/03 01:13:01;;;;;;;26.88;19.70;;;;;;;18.80;61.54;99951.94;5054463;28;20059;-90
2021/07/03 01:15:28;;;;;;;31.10;21.17;;;;;;;18.78;61.45;99945.91;5053598;28;20057;-91
2021/07/03 01:17:55;;;;;;;30.73;21.02;;;;;;;18.78;61.21;99945.91;5054672;28;20136;-90
2021/07/03 01:20:21;;;;;;;28.33;20.10;;;;;;;18.76;61.60;99945.19;5053123;28;20119;-87
2021/07/03 01:22:48;;;;;;;33.95;21.85;;;;;;;18.74;61.41;99947.16;5052721;28;20118;-88
2021/07/03 01:25:19;;;;;;;31.67;22.13;;;;;;;18.72;61.49;99951.78;5052712;28;20502;-88
2021/07/03 01:28:15;;;;;;;34.53;22.88;;;;;;;18.67;62.21;99957.53;5053679;28;20060;-91
2021/07/03 01:30:41;;;;;;;32.58;22.58;;;;;;;18.71;61.80;99950.09;5040923;28;20057;-87
2021/07/03 01:33:08;;;;;;;29.02;20.55;;;;;;;18.69;61.91;99947.56;5053690;28;20052;-89
2021/07/03 01:35:35;;;;;;;31.40;20.88;;;;;;;18.67;61.82;99952.19;5054397;28;20057;-89
2021/07/03 01:38:02;;;;;;;33.28;21.50;;;;;;;18.65;61.79;99955.97;5053344;28;20052;-89
2021/07/03 01:40:28;;;;;;;32.47;21.45;;;;;;;18.64;62.14;99954.28;5052498;28;20048;-89
2021/07/03 01:42:55;;;;;;;33.67;22.48;;;;;;;18.62;62.01;99954.44;5052632;28;20088;-90
2021/07/03 01:45:22;;;;;;;32.13;22.52;;;;;;;18.59;62.10;99950.22;5052937;28;20056;-88
2021/07/03 01:47:48;;;;;;;28.23;20.23;;;;;;;18.60;61.94;99951.03;5065919;28;20048;-92
2021/07/03 01:50:16;;;;;;;29.50;21.08;;;;;;;18.57;62.35;99949.50;5073544;28;20445;-88
2021/07/03 01:52:43;;;;;;;29.75;21.25;;;;;;;18.56;62.30;99944.28;5064224;28;20041;-89
2021/07/03 01:55:11;;;;;;;27.73;20.33;;;;;;;18.55;62.25;99946.13;5052097;28;20049;-90
2021/07/03 01:57:38;;;;;;;30.90;21.33;;;;;;;18.53;62.12;99947.22;5051927;28;20064;-89
2021/07/03 02:00:07;;;;;;;33.67;22.38;;;;;;;18.50;62.54;99948.34;5052001;28;20049;-89
2021/07/03 02:02:34;;;;;;;28.25;20.52;;;;;;;18.49;62.28;99949.31;5051872;28;20040;-90
2021/07/03 02:05:03;;;;;;;26.88;20.67;;;;;;;18.47;62.18;99943.28;5051634;28;20053;-90
2021/07/03 02:07:30;;;;;;;27.02;20.75;;;;;;;18.46;62.37;99944.25;5052974;28;20053;-90
2021/07/03 02:09:57;;;;;;;27.98;20.02;;;;;;;18.42;62.37;99943.69;5053309;28;20391;-88
2021/07/03 02:12:23;;;;;;;28.17;20.05;;;;;;;18.40;62.50;99939.47;5051230;28;20536;-88
2021/07/03 02:14:50;;;;;;;25.08;19.17;;;;;;;18.38;62.44;99941.44;5050329;28;20049;-90
2021/07/03 02:17:17;;;;;;;26.88;20.15;;;;;;;18.35;62.28;99940.72;5052510;28;20061;-90
2021/07/03 02:19:43;;;;;;;32.05;21.95;;;;;;;18.32;62.56;99938.31;5051596;28;20060;-88
2021/07/03 02:22:10;;;;;;;28.55;19.67;;;;;;;18.30;62.42;99942.94;5053218;28;20059;-90
2021/07/03 02:24:37;;;;;;;29.10;20.27;;;;;;;18.29;62.69;99941.25;5053152;28;20045;-90
2021/07/03 02:27:04;;;;;;;27.02;21.05;;;;;;;18.26;62.92;99933.53;5051923;28;20656;-91
2021/07/03 02:29:31;;;;;;;31.15;20.48;;;;;;;18.25;62.77;99937.16;5052202;28;20060;-89
2021/07/03 02:31:58;;;;;;;26.58;20.73;;;;;;;18.23;62.80;99936.44;5052083;28;20049;-90
2021/07/03 02:34:24;;;;;;;31.83;21.95;;;;;;;18.22;62.74;99935.63;5051962;28;20056;-89
2021/07/03 02:36:51;;;;;;;30.48;21.00;;;;;;;18.20;62.99;99942.88;5051747;28;20106;-90
2021/07/03 02:39:17;;;;;;;27.10;19.77;;;;;;;18.19;62.87;99943.00;5053005;28;20457;-88
2021/07/03 02:41:44;;;;;;;25.92;19.60;;;;;;;18.18;63.02;99941.31;5053143;28;20406;-92
2021/07/03 02:44:10;;;;;;;26.10;18.90;;;;;;;18.16;62.87;99932.63;5051571;28;20056;-91
2021/07/03 02:46:37;;;;;;;32.00;22.27;;;;;;;18.16;62.97;99943.28;5052824;28;20045;-90
2021/07/03 02:49:04;;;;;;;28.30;20.35;;;;;;;18.14;62.65;99943.44;5051812;28;20063;-89
2021/07/03 02:51:30;;;;;;;29.17;19.52;;;;;;;18.13;63.08;99940.88;5053451;28;20053;-88
2021/07/03 02:53:57;;;;;;;29.55;20.83;;;;;;;18.11;62.74;99943.69;5051841;28;20045;-89
2021/07/03 02:56:24;;;;;;;29.45;20.85;;;;;;;18.08;63.02;99939.47;5051439;28;20858;-90
2021/07/03 02:58:50;;;;;;;28.15;21.77;;;;;;;18.06;63.10;99936.03;5051475;28;20110;-92
2021/07/03 03:01:17;;;;;;;29.92;20.80;;;;;;;18.05;63.09;99939.69;5051836;28;20052;-90
2021/07/03 03:03:44;;;;;;;26.45;19.98;;;;;;;18.04;62.71;99938.00;5051539;28;20056;-91
2021/07/03 03:06:12;;;;;;;26.73;20.20;;;;;;;18.03;63.02;99940.78;5051267;28;20056;-90
2021/07/03 03:08:39;;;;;;;24.20;18.83;;;;;;;18.01;62.63;99943.59;5052938;28;20486;-91
2021/07/03 03:11:06;;;;;;;28.83;20.17;;;;;;;17.97;62.49;99940.34;5054710;28;20498;-90
2021/07/03 03:13:32;;;;;;;25.25;19.23;;;;;;;17.96;62.75;99935.16;5056081;28;20056;-89
2021/07/03 03:15:59;;;;;;;25.77;19.63;;;;;;;17.92;62.77;99933.72;5055248;28;20053;-92
2021/07/03 03:18:26;;;;;;;27.63;20.52;;;;;;;17.90;62.86;99933.03;5055349;28;20056;-91
2021/07/03 03:20:52;;;;;;;27.27;20.95;;;;;;;17.88;62.86;99924.31;5056912;28;20052;-90
2021/07/03 03:23:19;;;;;;;26.80;20.42;;;;;;;17.86;62.69;99931.59;5055060;28;20041;-89
2021/07/03 03:25:46;;;;;;;28.92;22.02;;;;;;;17.83;63.00;99932.72;5054726;28;20053;-91
2021/07/03 03:28:12;;;;;;;27.75;21.23;;;;;;;17.82;62.97;99931.00;5056925;28;20048;-92
2021/07/03 03:30:39;;;;;;;28.13;21.35;;;;;;;17.79;63.10;99924.13;5072119;28;20070;-92
2021/07/03 03:33:06;;;;;;;28.45;21.60;;;;;;;17.80;63.26;99930.28;5056528;28;20080;-90
2021/07/03 03:35:33;;;;;;;28.70;22.10;;;;;;;17.78;63.16;99929.56;5055977;28;20048;-92
2021/07/03 03:38:00;;;;;;;30.75;22.13;;;;;;;17.77;63.15;99923.41;5071949;28;20056;-92
2021/07/03 03:40:26;;;;;;;28.60;21.25;;;;;;;17.75;63.51;99916.53;5056449;28;20057;-92
2021/07/03 03:42:54;;;;;;;30.00;22.15;;;;;;;17.75;63.49;99914.69;5055111;28;20528;-88
2021/07/03 03:45:22;;;;;;;28.77;22.13;;;;;;;17.75;63.40;99919.19;5056578;28;20128;-90
2021/07/03 03:47:48;;;;;;;33.50;22.85;;;;;;;17.74;63.43;99922.81;5055565;28;20057;-89
2021/07/03 03:50:15;;;;;;;33.55;23.40;;;;;;;17.75;63.58;99935.19;5056683;28;20409;-88
2021/07/03 03:52:42;;;;;;;32.25;21.77;;;;;;;17.74;63.72;99934.31;5054823;28;20053;-91
2021/07/03 03:55:09;;;;;;;38.45;25.50;;;;;;;17.77;63.94;99933.22;5054578;28;20052;-89
2021/07/03 03:57:36;;;;;;;38.30;26.27;;;;;;;17.77;64.48;99934.06;5055036;28;20505;-90
2021/07/03 04:00:07;;;;;;;41.22;25.75;;;;;;;17.78;65.03;99932.22;5055025;28;20064;-90
2021/07/03 04:02:34;;;;;;;43.67;28.15;;;;;;;17.83;65.06;99935.38;5055470;28;20056;-91
2021/07/03 04:05:01;;;;;;;44.33;26.65;;;;;;;17.87;65.22;99933.28;5055468;28;20099;-90
2021/07/03 04:07:27;;;;;;;44.75;27.45;;;;;;;17.90;65.27;99930.38;5054607;28;20387;-89
2021/07/03 04:09:54;;;;;;;47.35;28.80;;;;;;;17.94;65.53;99934.44;5055497;28;20056;-90
2021/07/03 04:12:20;;;;;;;42.58;26.65;;;;;;;17.98;65.43;99930.53;5054810;28;20057;-90
2021/07/03 04:14:48;;;;;;;40.33;26.90;;;;;;;18.02;65.79;99941.78;5054601;28;20056;-89
2021/07/03 04:17:15;;;;;;;42.88;27.52;;;;;;;18.05;65.64;99944.19;5054971;28;20056;-90
2021/07/03 04:19:42;;;;;;;41.30;25.88;;;;;;;18.06;65.47;99941.38;5055045;28;20509;-90
2021/07/03 04:22:14;;;;;;;44.65;27.23;;;;;;;18.10;65.73;99948.16;5053677;28;20080;-90
2021/07/03 04:24:41;;;;;;;48.40;29.25;;;;;;;18.15;65.73;99938.91;5055518;28;20509;-88
2021/07/03 04:27:07;;;;;;;43.50;27.27;;;;;;;18.19;65.88;99943.00;5054396;28;20056;-89
2021/07/03 04:29:34;;;;;;;41.80;26.60;;;;;;;18.23;65.55;99937.28;5055910;28;20053;-89
2021/07/03 04:32:01;;;;;;;42.13;25.73;;;;;;;18.27;65.51;99940.53;5070944;28;20060;-88
2021/07/03 04:34:28;;;;;;;39.50;25.67;;;;;;;18.31;65.81;99939.28;5054084;28;20686;-91
2021/07/03 04:36:55;;;;;;;44.22;29.10;;;;;;;18.36;65.88;99929.06;5054537;28;20538;-90
2021/07/03 04:39:22;;;;;;;42.63;27.10;;;;;;;18.40;65.56;99929.66;5054221;28;20398;-90
2021/07/03 04:41:49;;;;;;;42.30;26.65;;;;;;;18.45;65.70;99934.56;5054543;28;20056;-89
2021/07/03 04:44:17;;;;;;;37.25;23.65;;;;;;;18.48;65.64;99939.63;5054370;28;20045;-90
2021/07/03 04:46:45;;;;;;;39.58;26.65;;;;;;;18.52;65.68;99930.41;5053786;28;20395;-88
2021/07/03 04:49:12;;;;;;;40.97;26.88;;;;;;;18.56;65.50;99918.47;5063632;28;20058;-88
2021/07/03 04:51:39;;;;;;;45.78;26.95;;;;;;;18.59;65.47;99923.56;5074162;28;20075;-91
2021/07/03 04:54:06;;;;;;;44.88;27.38;;;;;;;18.63;65.32;99921.44;5073816;28;20052;-90
2021/07/03 04:56:32;;;;;;;45.55;29.90;;;;;;;18.66;65.57;99913.19;5074780;28;20059;-90
2021/07/03 04:58:59;;;;;;;43.55;28.83;;;;;;;18.69;65.36;99912.91;5073844;28;20060;-92
2021/07/03 05:01:26;;;;;;;46.20;29.80;;;;;;;18.72;65.46;99911.78;5073190;28;20060;-90
2021/07/03 05:03:53;;;;;;;48.45;31.55;;;;;;;18.74;65.45;99908.03;5062725;28;20064;-88
2021/07/03 05:06:21;;;;;;;46.00;29.33;;;;;;;18.76;65.41;99910.53;5054122;28;20426;-91
2021/07/03 05:08:48;;;;;;;48.53;28.95;;;;;;;18.78;65.51;99905.91;5053399;28;20076;-90
2021/07/03 05:11:14;;;;;;;46.17;28.42;;;;;;;18.81;65.60;99905.66;5053313;28;20060;-92
2021/07/03 05:13:41;;;;;;;44.72;31.10;;;;;;;18.82;65.78;99909.13;5053434;28;20048;-88
2021/07/03 05:16:08;;;;;;;44.75;29.55;;;;;;;18.84;65.74;99910.69;5054673;28;20399;-89
2021/07/03 05:18:35;;;;;;;45.45;29.17;;;;;;;18.85;65.66;99909.72;5053073;28;20077;-88
2021/07/03 05:21:02;;;;;;;41.58;28.52;;;;;;;18.88;65.58;99912.09;5054485;28;20060;-90
2021/07/03 05:23:28;;;;;;;38.67;24.90;;;;;;;18.91;65.82;99910.16;5055365;28;20506;-90
2021/07/03 05:25:57;;;;;;;40.42;28.00;;;;;;;18.96;65.86;99902.56;5053885;28;20057;-91
2021/07/03 05:28:25;;;;;;;43.25;28.48;;;;;;;19.00;65.64;99914.66;5053491;28;20418;-90
2021/07/03 05:30:52;;;;;;;42.63;26.42;;;;;;;19.05;65.91;99912.44;5052991;28;20060;-90
2021/07/03 05:33:20;;;;;;;43.88;27.70;;;;;;;19.11;65.92;99911.84;5052514;28;20603;-89
2021/07/03 05:35:46;;;;;;;46.42;29.15;;;;;;;19.16;66.05;99918.59;5060222;28;20041;-91
2021/07/03 05:38:13;;;;;;;47.72;28.42;;;;;;;19.21;65.91;99921.72;5074936;28;20079;-92
2021/07/03 05:40:40;;;;;;;45.80;29.75;;;;;;;19.26;65.88;99930.16;5074092;28;20057;-90
2021/07/03 05:43:07;;;;;;;43.22;26.88;;;;;;;19.31;65.85;99927.03;5072527;28;20051;-88
2021/07/03 05:45:33;;;;;;;39.50;25.60;;;;;;;19.35;65.78;99923.09;5073254;28;20056;-90
2021/07/03 05:48:00;;;;;;;46.67;29.27;;;;;;;19.40;65.59;99918.22;5073337;28;20075;-90
2021/07/03 05:50:28;;;;;;;43.72;27.02;;;;;;;19.45;65.59;99923.97;5072946;28;20049;-91
2021/07/03 05:52:55;;;;;;;40.42;26.77;;;;;;;19.52;65.75;99918.91;5072208;28;20057;-89
2021/07/03 05:55:22;;;;;;;46.50;28.35;;;;;;;19.59;65.34;99920.00;5073011;28;20079;-90
2021/07/03 05:57:50;;;;;;;40.58;26.70;;;;;;;19.65;65.60;99914.09;5072353;28;20059;-90
2021/07/03 06:00:17;;;;;;;47.83;29.38;;;;;;;19.70;65.06;99902.97;5072667;28;20524;-90
2021/07/03 06:02:44;;;;;;;39.35;25.58;;;;;;;19.77;65.29;99904.09;5073012;28;20075;-92
2021/07/03 06:05:11;;;;;;;43.30;27.25;;;;;;;19.84;65.01;99906.22;5072819;28;20040;-90
2021/07/03 06:07:38;;;;;;;40.22;25.02;;;;;;;19.91;65.10;99912.63;5066494;28;20052;-90
2021/07/03 06:10:05;;;;;;;39.05;25.63;;;;;;;19.97;65.00;99912.06;5052657;28;20052;-91
2021/07/03 06:12:32;;;;;;;42.20;26.60;;;;;;;20.03;64.76;99914.19;5052180;28;20056;-89
2021/07/03 06:14:58;;;;;;;42.67;25.98;;;;;;;20.11;64.66;99912.63;5052945;28;20056;-90
2021/07/03 06:17:25;;;;;;;37.72;24.90;;;;;;;20.17;64.39;99915.53;5052465;28;20061;-90
2021/07/03 06:19:52;;;;;;;37.42;25.58;;;;;;;20.23;64.14;99921.28;5052435;28;20102;-90
2021/07/03 06:22:18;;;;;;;39.67;23.90;;;;;;;20.29;64.20;99920.69;5052790;28;20057;-90
2021/07/03 06:24:47;;;;;;;40.70;27.15;;;;;;;20.35;63.98;99924.59;5054125;28;20053;-88
2021/07/03 06:27:14;;;;;;;38.85;25.13;;;;;;;20.41;63.83;99919.50;5053246;28;20053;-88
2021/07/03 06:29:41;;;;;;;40.17;25.45;;;;;;;20.47;63.65;99920.75;5053341;28;20060;-90
2021/07/03 06:32:08;;;;;;;37.15;24.05;;;;;;;20.53;63.78;99928.16;5052948;28;20098;-90
2021/07/03 06:34:36;;;;;;;34.25;23.63;;;;;;;20.60;63.41;99917.75;5051206;28;20056;-90
2021/07/03 06:37:03;;;;;;;38.42;25.65;;;;;;;20.67;63.43;99915.31;5053511;28;20060;-90
2021/07/03 06:39:29;;;;;;;35.67;23.90;;;;;;;20.75;63.59;99919.91;5052229;28;20045;-90
2021/07/03 06:41:56;;;;;;;40.28;25.63;;;;;;;20.84;63.82;99919.00;5051681;28;20056;-91
2021/07/03 06:44:23;;;;;;;35.25;24.70;;;;;;;20.92;64.02;99921.81;5051477;28;20045;-89
2021/07/03 06:46:50;;;;;;;35.03;24.00;;;;;;;21.01;63.90;99913.84;5051264;28;20056;-91
2021/07/03 06:49:17;;;;;;;33.20;23.10;;;;;;;21.10;63.38;99923.66;5053193;28;20052;-88
2021/07/03 06:51:44;;;;;;;35.92;23.08;;;;;;;21.18;63.35;99921.06;5071613;28;20048;-91
2021/07/03 06:54:11;;;;;;;37.47;23.25;;;;;;;21.27;62.88;99934.50;5073457;28;20052;-91
2021/07/03 06:56:37;;;;;;;30.88;21.98;;;;;;;21.34;62.93;99930.22;5072725;28;20049;-90
2021/07/03 06:59:04;;;;;;;27.35;20.88;;;;;;;21.41;62.96;99936.66;5072754;28;20052;-89
2021/07/03 07:01:31;;;;;;;28.23;19.77;;;;;;;21.50;62.59;99934.03;5072165;28;20053;-89
2021/07/03 07:03:57;;;;;;;27.63;18.88;;;;;;;21.58;62.73;99931.44;5072284;28;20055;-90
2021/07/03 07:06:24;;;;;;;28.45;21.10;;;;;;;21.64;62.28;99938.81;5071814;28;20095;-89
2021/07/03 07:08:51;;;;;;;27.08;18.17;;;;;;;21.69;62.24;99938.38;5072282;28;20391;-91
2021/07/03 07:11:18;;;;;;;25.58;18.27;;;;;;;21.74;62.14;99936.09;5071294;28;20048;-89
2021/07/03 07:13:44;;;;;;;23.95;17.05;;;;;;;21.79;62.05;99941.00;5070663;28;20482;-90
2021/07/03 07:16:11;;;;;;;27.30;19.35;;;;;;;21.81;60.94;99945.19;5070658;28;20064;-89
2021/07/03 07:18:38;;;;;;;26.95;18.05;;;;;;;21.85;61.08;99945.72;5071531;28;20060;-90
2021/07/03 07:21:05;;;;;;;24.00;17.20;;;;;;;21.87;60.89;99941.88;5071928;28;20064;-89
2021/07/03 07:23:32;;;;;;;26.50;17.75;;;;;;;21.92;60.65;99938.75;5071208;28;20074;-92
2021/07/03 07:25:59;;;;;;;23.17;16.08;;;;;;;21.94;60.28;99939.41;5069684;28;20048;-91
2021/07/03 07:28:25;;;;;;;24.33;17.23;;;;;;;21.97;60.25;99933.75;5061386;28;20057;-91
2021/07/03 07:30:52;;;;;;;25.10;17.13;;;;;;;22.02;60.63;99940.47;5052344;28;20049;-92
2021/07/03 07:33:19;;;;;;;22.88;16.65;;;;;;;22.06;60.34;99937.31;5053201;28;20053;-89
2021/07/03 07:35:45;;;;;;;26.02;17.05;;;;;;;22.10;60.37;99930.63;5051674;28;20053;-89
2021/07/03 07:38:12;;;;;;;22.27;16.25;;;;;;;22.17;60.63;99930.84;5050489;28;20049;-93
2021/07/03 07:40:39;;;;;;;22.75;16.85;;;;;;;22.22;60.41;99930.34;5052929;28;20055;-92
2021/07/03 07:43:05;;;;;;;21.25;15.30;;;;;;;22.29;59.99;99938.59;5050395;28;20056;-89
2021/07/03 07:45:32;;;;;;;24.17;16.23;;;;;;;22.34;59.58;99938.94;5051124;28;20045;-91
2021/07/03 07:47:59;;;;;;;22.40;15.40;;;;;;;22.41;59.84;99931.97;5051157;28;20122;-91
2021/07/03 07:50:25;;;;;;;25.83;16.65;;;;;;;22.50;59.48;99930.16;5051138;28;20421;-92
2021/07/03 07:52:53;;;;;;;23.38;16.73;;;;;;;22.60;59.25;99930.91;5057780;28;20051;-91
2021/07/03 07:55:19;;;;;;;24.88;17.48;;;;;;;22.70;58.86;99928.09;5071569;28;20041;-91
2021/07/03 07:57:46;;;;;;;23.75;18.38;;;;;;;22.81;59.05;99926.09;5075231;28;20424;-91
2021/07/03 08:00:16;;;;;;;22.55;16.55;;;;;;;22.92;59.24;99923.09;5072873;28;20063;-91
2021/07/03 08:02:43;;;;;;;20.58;15.77;;;;;;;23.02;58.80;99912.19;5075275;28;20063;-91
2021/07/03 08:05:11;;;;;;;28.20;18.85;;;;;;;23.12;58.94;99922.78;5073510;28;20508;-91
2021/07/03 08:07:38;;;;;;;21.33;15.73;;;;;;;23.20;58.46;99906.69;5074106;28;20059;-91
2021/07/03 08:10:05;;;;;;;23.30;16.38;;;;;;;23.28;58.41;99908.53;5074241;28;20048;-90
2021/07/03 08:12:32;;;;;;;23.85;17.52;;;;;;;23.36;58.20;99913.13;5074308;28;20051;-90
2021/07/03 08:14:59;;;;;;;18.50;15.07;;;;;;;23.42;57.87;99915.13;5074373;28;20040;-89
2021/07/03 08:17:26;;;;;;;18.25;14.27;;;;;;;23.46;57.40;99913.78;5075069;28;20188;-91
2021/07/03 08:19:53;;;;;;;21.58;16.42;;;;;;;23.49;57.32;99905.38;5074091;28;20052;-92
2021/07/03 08:22:19;;;;;;;23.35;16.77;;;;;;;23.50;56.74;99912.44;5075164;28;20060;-92
2021/07/03 08:24:46;;;;;;;22.17;16.50;;;;;;;23.48;56.83;99909.09;5073853;28;20052;-92
2021/07/03 08:27:15;;;;;;;20.15;15.63;;;;;;;23.46;56.68;99908.41;5060664;28;20056;-88
2021/07/03 08:29:42;;;;;;;20.35;14.30;;;;;;;23.43;56.73;99906.03;5053769;28;20059;-88
2021/07/03 08:32:08;;;;;;;20.35;13.50;;;;;;;23.39;56.07;99900.19;5053277;28;20059;-90
2021/07/03 08:34:35;;;;;;;20.88;15.00;;;;;;;23.38;55.92;99900.34;5054005;28;20053;-90
2021/07/03 08:37:02;;;;;;;18.17;13.18;;;;;;;23.37;56.24;99898.69;5054995;28;20056;-90
2021/07/03 08:39:28;;;;;;;17.67;14.20;;;;;;;23.37;56.37;99899.53;5053544;28;20057;-90
2021/07/03 08:41:55;;;;;;;21.95;14.73;;;;;;;23.40;56.94;99899.16;5055309;28;20068;-90
2021/07/03 08:44:21;;;;;;;18.15;13.38;;;;;;;23.44;56.74;99899.69;5073172;28;20041;-89
2021/07/03 08:46:48;;;;;;;21.88;15.02;;;;;;;23.48;56.39;99901.03;5073505;28;20067;-90
2021/07/03 08:49:16;;;;;;;18.90;14.85;;;;;;;23.51;55.96;99895.31;5073557;28;20468;-91
2021/07/03 08:51:46;;;;;;;19.52;13.95;;;;;;;23.51;55.58;99892.63;5073240;28;20102;-92
2021/07/03 08:54:12;;;;;;;21.30;15.02;;;;;;;23.55;55.14;99902.00;5073353;28;20063;-91
2021/07/03 08:56:39;;;;;;;18.80;14.93;;;;;;;23.59;55.82;99893.63;5074376;28;20056;-91
2021/07/03 08:59:22;;;;;;;17.27;13.00;;;;;;;23.61;56.69;99896.97;5072683;28;20102;-88
2021/07/03 09:01:51;;;;;;;21.13;14.10;;;;;;;23.72;56.58;99895.78;5073976;28;20044;-88
2021/07/03 09:04:19;;;;;;;18.88;14.00;;;;;;;23.80;56.24;99883.19;5072875;28;20557;-89
2021/07/03 09:06:46;;;;;;;17.27;13.57;;;;;;;23.88;55.38;99892.25;5072943;28;20130;-91
2021/07/03 09:09:23;;;;;;;18.23;14.02;;;;;;;23.88;54.86;99885.00;5071887;28;20052;-92
2021/07/03 09:11:54;;;;;;;16.88;12.88;;;;;;;23.97;55.26;99885.81;5073084;28;20497;-89
2021/07/03 09:14:28;;;;;;;16.92;13.38;;;;;;;24.03;55.56;99882.44;5073093;28;20051;-91
2021/07/03 09:16:58;;;;;;;17.85;13.18;;;;;;;24.13;56.18;99881.41;5074036;28;20486;-92
2021/07/03 09:19:29;;;;;;;18.88;14.45;;;;;;;24.20;55.03;99880.56;5072801;28;20346;-90
2021/07/03 09:21:57;;;;;;;17.67;12.65;;;;;;;24.30;54.81;99887.59;5073659;28;20056;-89
2021/07/03 09:24:31;;;;;;;16.35;13.20;;;;;;;24.33;54.46;99884.53;5072809;28;20044;-90
2021/07/03 09:27:00;;;;;;;16.83;12.55;;;;;;;24.41;54.53;99881.00;5072978;28;20128;-92
2021/07/03 09:29:27;;;;;;;17.20;13.98;;;;;;;24.46;55.22;99884.84;5072343;28;20513;-91
2021/07/03 09:31:54;;;;;;;17.83;13.85;;;;;;;24.52;55.67;99879.75;5072385;28;20053;-92
2021/07/03 09:34:21;;;;;;;17.02;13.38;;;;;;;24.62;55.49;99874.16;5072495;28;20827;-89
2021/07/03 09:36:48;;;;;;;15.73;12.88;;;;;;;24.73;55.70;99868.34;5072712;28;20109;-91
2021/07/03 09:39:25;;;;;;;15.85;12.23;;;;;;;24.84;54.67;99867.13;5073168;28;20056;-90
2021/07/03 09:41:52;;;;;;;15.57;11.48;;;;;;;24.98;55.54;99868.22;5072501;28;20064;-90
2021/07/03 09:44:18;;;;;;;16.63;11.63;;;;;;;25.10;54.87;99868.63;5073614;28;20044;-89
2021/07/03 09:46:51;;;;;;;12.68;10.18;;;;;;;25.21;54.56;99870.91;5072116;28;20052;-89
2021/07/03 09:49:28;;;;;;;11.32;9.68;;;;;;;25.33;54.66;99871.31;5053801;28;20107;-90
2021/07/03 09:51:57;;;;;;;11.20;9.43;;;;;;;25.44;52.91;99872.72;5053306;28;20049;-91
2021/07/03 09:54:27;;;;;;;12.10;9.52;;;;;;;25.49;52.85;99867.63;5052897;28;20057;-91
2021/07/03 09:57:00;;;;;;;12.88;10.18;;;;;;;25.56;52.62;99872.28;5051959;28;20056;-90
2021/07/03 09:59:32;;;;;;;10.82;8.35;;;;;;;25.59;54.09;99856.63;5053893;28;20057;-90
2021/07/03 10:02:01;;;;;;;9.83;8.20;;;;;;;25.68;52.62;99857.34;5052345;28;20066;-91
2021/07/03 10:04:28;;;;;;;11.55;7.75;;;;;;;25.82;53.87;99855.69;5051978;28;20307;-87
2021/07/03 10:07:20;;;;;;;11.68;8.40;;;;;;;25.94;52.84;99852.53;5051479;28;20061;-90
2021/07/03 10:09:50;;;;;;;10.52;8.40;;;;;;;26.10;52.07;99849.66;5052189;28;20291;-90
2021/07/03 10:12:24;;;;;;;9.43;7.72;;;;;;;26.20;50.75;99859.31;5051984;28;20418;-88
2021/07/03 10:14:52;;;;;;;11.45;8.75;;;;;;;26.25;50.71;99862.28;5051353;28;20060;-90
2021/07/03 10:17:26;;;;;;;11.48;8.90;;;;;;;26.21;49.64;99850.19;5051949;28;20517;-90
2021/07/03 10:19:54;;;;;;;10.73;8.20;;;;;;;26.17;49.83;99848.88;5055944;28;20051;-88
2021/07/03 10:22:29;;;;;;;11.10;9.23;;;;;;;26.04;49.49;99854.97;5071498;28;20049;-91
2021/07/03 10:25:19;;;;;;;14.60;8.15;;;;;;;25.99;50.46;99859.06;5051260;28;20060;-89
2021/07/03 10:27:52;;;;;;;9.48;8.20;;;;;;;25.92;50.40;99860.81;5068076;28;20068;-89
2021/07/03 10:30:26;;;;;;;10.30;7.85;;;;;;;25.86;50.19;99851.59;5051474;28;20052;-92
2021/07/03 10:32:55;;;;;;;11.68;8.23;;;;;;;25.88;50.13;99852.28;5051748;28;20064;-89
2021/07/03 10:35:22;;;;;;;9.80;7.25;;;;;;;25.89;50.32;99848.53;5050804;28;20064;-91
2021/07/03 10:37:49;;;;;;;9.93;7.68;;;;;;;25.94;51.49;99849.84;5071900;28;20060;-90
2021/07/03 10:40:29;;;;;;;8.85;7.10;;;;;;;26.01;49.98;99846.19;5071716;28;20137;-92
2021/07/03 10:43:07;;;;;;;12.07;8.10;;;;;;;26.12;50.50;99838.66;5072712;28;20071;-89
2021/07/03 10:45:47;;;;;;;10.68;6.97;;;;;;;26.28;51.36;99845.75;5072614;28;20044;-93
2021/07/03 10:48:19;;;;;;;9.32;7.28;;;;;;;26.44;50.62;99838.44;5071070;28;20048;-90
2021/07/03 10:50:48;;;;;;;7.38;6.40;;;;;;;26.58;51.54;99829.47;5071552;28;20059;-89
2021/07/03 10:53:23;;;;;;;9.02;6.15;;;;;;;26.77;51.70;99824.47;5070934;28;20082;-91
2021/07/03 10:55:50;;;;;;;10.45;6.78;;;;;;;27.03;50.82;99826.59;5071327;28;20063;-91
2021/07/03 10:58:20;;;;;;;7.22;6.47;;;;;;;27.29;49.73;99827.03;5072615;28;20063;-91
2021/07/03 11:00:51;;;;;;;7.18;6.30;;;;;;;27.59;50.41;99832.22;5071272;28;20052;-90
2021/07/03 11:03:23;;;;;;;7.75;6.43;;;;;;;27.92;48.00;99820.78;5068246;28;20049;-89
2021/07/03 11:05:51;;;;;;;10.32;6.05;;;;;;;28.22;47.75;99819.66;5052582;28;20045;-91
2021/07/03 11:08:24;;;;;;;6.40;5.72;;;;;;;28.43;46.07;99820.56;5050964;28;20406;-91
2021/07/03 11:10:51;;;;;;;7.18;5.30;;;;;;;28.48;45.97;99810.81;5051277;28;20048;-92
2021/07/03 11:13:24;;;;;;;7.40;5.75;;;;;;;28.42;44.64;99811.63;5051429;28;20834;-92
2021/07/03 11:15:51;;;;;;;7.60;5.72;;;;;;;28.36;44.83;99815.13;5051046;28;20407;-92
2021/07/03 11:18:18;;;;;;;6.45;5.35;;;;;;;28.32;45.33;99808.47;5051985;28;20088;-90
2021/07/03 11:20:45;;;;;;;6.93;6.00;;;;;;;28.37;45.23;99807.88;5053019;28;20056;-92
2021/07/03 11:23:13;;;;;;;7.25;5.85;;;;;;;28.52;45.82;99805.81;5052669;28;20063;-91